CheckWX is a tool to help pilots better visualize weather data.  It is not intended as a substitute for an official pre-flight weather briefing.

12:33:22 UTC

KHLG METAR
Wheeling Ohio Co Airport
Wheeling, West Virginia, USA
Current

10 hours ago

KHLG 190253Z COR 31010KT 10SM SCT110 04/M01 A3018 RMK A02 SLP227 T00441006 51032 $
Observed
Feb-19 @ 02:53 UTC
Wind
  • 310° at 10 KTS
Visibility
10 SM
Flight Rules
VFR
Cloud Levels
  • Scattered at 11,000' AGL
Temperature
C / 39°F
Dewpoint
-1°C / 30°F
Humidity
70%
Altimeter
30.18" Hg
Pressure
1022.02 hPa
Previous

11 hours ago

KHLG 190153Z COR 30011G20KT 10SM OVC095 05/M01 A3015 RMK A02 SLP218 T00501006 $
Observed
Feb-19 @ 01:53 UTC
Wind
  • 300° at 11 KTS
  • Gusting to 20 KTS
Visibility
10 SM
Flight Rules
VFR
Cloud Levels
  • Overcast at 9,500' AGL
Temperature
C / 41°F
Dewpoint
-1°C / 30°F
Humidity
66%
Altimeter
30.15" Hg
Pressure
1021.02 hPa
Previous

12 hours ago

KHLG 190053Z COR 31010G22KT 10SM BKN100 OVC120 06/M02 A3012 RMK A02 SLP206 T00561022 $
Observed
Feb-19 @ 00:53 UTC
Wind
  • 310° at 10 KTS
  • Gusting to 22 KTS
Visibility
10 SM
Flight Rules
VFR
Cloud Levels
  • Broken at 10,000' AGL
  • Overcast at 12,000' AGL
Temperature
C / 43°F
Dewpoint
-2°C / 28°F
Humidity
57%
Altimeter
30.12" Hg
Pressure
1020.02 hPa